Time;durP1;ratioP1;P1;durP2;ratioP2;P2;SDS_P1;SDS_P2;PMS_P1;PMS_P2;Temp;Humidity;BMP_temperature;BMP_pressure;BME280_temperature;BME280_humidity;BME280_pressure;Samples;Min_cycle;Max_cycle;Signal;HPM_P1;HPM_P2
2022/08/26 00:00:33;;;;;;;33.08;19.30;;;21.50;99.90;;;;;;5113456;28;20044;-75
2022/08/26 00:02:59;;;;;;;31.00;19.08;;;21.20;99.90;;;;;;5113412;28;20078;-74
2022/08/26 00:05:26;;;;;;;38.88;19.63;;;21.40;99.90;;;;;;5113294;28;20121;-77
2022/08/26 00:07:52;;;;;;;34.85;19.70;;;21.10;99.90;;;;;;5113273;28;20052;-80
2022/08/26 00:10:18;;;;;;;38.03;20.20;;;21.10;99.90;;;;;;5112909;28;20565;-76
2022/08/26 00:12:44;;;;;;;32.63;19.15;;;21.40;99.90;;;;;;5112817;28;20544;-75
2022/08/26 00:15:13;;;;;;;34.03;19.05;;;21.40;99.90;;;;;;5113173;28;20040;-80
2022/08/26 00:17:39;;;;;;;34.78;20.63;;;21.10;99.90;;;;;;5113122;28;20435;-73
2022/08/26 00:20:07;;;;;;;33.85;21.08;;;21.30;99.90;;;;;;5113166;28;20099;-78
2022/08/26 00:22:33;;;;;;;36.70;19.00;;;21.30;99.90;;;;;;5113114;28;20048;-75
2022/08/26 00:24:59;;;;;;;35.45;18.80;;;21.20;99.90;;;;;;5111825;28;20059;-79
2022/08/26 00:27:25;;;;;;;33.08;19.23;;;20.90;99.90;;;;;;5112669;28;20039;-74
2022/08/26 00:29:50;;;;;;;35.80;19.23;;;20.90;99.90;;;;;;5112842;28;20061;-78
2022/08/26 00:32:16;;;;;;;36.45;19.83;;;21.00;99.90;;;;;;5112782;28;20036;-75
2022/08/26 00:34:42;;;;;;;37.33;19.13;;;21.00;99.90;;;;;;5112873;28;20047;-73
2022/08/26 00:37:09;;;;;;;38.03;19.92;;;21.20;99.90;;;;;;5112817;28;20396;-77
2022/08/26 00:39:34;;;;;;;35.15;19.45;;;21.20;99.90;;;;;;5112496;28;20394;-78
2022/08/26 00:42:00;;;;;;;39.42;20.70;;;21.20;99.90;;;;;;5112685;28;20036;-76
2022/08/26 00:44:26;;;;;;;37.33;20.35;;;21.00;99.90;;;;;;5112700;28;20070;-75
2022/08/26 00:47:00;;;;;;;36.92;20.42;;;21.10;99.90;;;;;;5094325;28;20070;-75
2022/08/26 00:49:46;;;;;;;44.72;20.77;;;20.90;99.90;;;;;;5112743;28;20047;-75
2022/08/26 00:52:16;;;;;;;40.78;20.45;;;21.10;99.90;;;;;;5112727;28;20058;-75
2022/08/26 00:55:08;;;;;;;32.78;19.20;;;20.80;99.90;;;;;;5094273;28;20108;-77
2022/08/26 00:57:35;;;;;;;32.10;20.25;;;20.90;99.90;;;;;;5100690;28;20047;-74
2022/08/26 01:00:05;;;;;;;42.13;19.50;;;20.80;99.90;;;;;;5112519;28;20087;-77
2022/08/26 01:02:30;;;;;;;33.97;19.27;;;21.10;99.90;;;;;;5112587;28;20147;-73
2022/08/26 01:05:00;;;;;;;35.78;20.05;;;20.90;99.90;;;;;;5112510;28;20139;-76
2022/08/26 01:07:28;;;;;;;47.63;21.45;;;20.90;99.90;;;;;;5112200;28;20387;-77
2022/08/26 01:09:56;;;;;;;43.90;22.05;;;20.90;99.90;;;;;;5112508;28;20047;-80
2022/08/26 01:12:25;;;;;;;42.40;21.08;;;20.90;99.90;;;;;;5112344;28;20051;-76
2022/08/26 01:14:51;;;;;;;39.90;21.27;;;20.70;99.90;;;;;;5112368;28;20047;-74
2022/08/26 01:17:17;;;;;;;42.58;22.95;;;21.00;99.90;;;;;;5112400;28;20093;-76
2022/08/26 01:19:50;;;;;;;44.22;22.35;;;21.00;99.90;;;;;;5094165;28;20055;-77
2022/08/26 01:22:18;;;;;;;43.72;21.23;;;20.90;99.90;;;;;;5094902;28;20044;-78
2022/08/26 01:24:45;;;;;;;43.67;21.35;;;21.10;99.90;;;;;;5112422;28;20126;-77
2022/08/26 01:27:14;;;;;;;38.33;20.00;;;20.90;99.90;;;;;;5112733;28;20044;-79
2022/08/26 01:29:42;;;;;;;47.30;22.90;;;21.20;99.90;;;;;;5112208;28;20110;-74
2022/08/26 01:32:14;;;;;;;36.80;21.40;;;21.20;99.90;;;;;;5112205;28;20047;-79
2022/08/26 01:34:40;;;;;;;39.92;21.70;;;21.10;99.90;;;;;;5112296;28;20126;-75
2022/08/26 01:37:13;;;;;;;41.92;21.67;;;21.30;99.90;;;;;;5114658;28;20145;-71
2022/08/26 01:39:40;;;;;;;45.97;22.55;;;20.80;99.90;;;;;;5116366;28;20114;-78
2022/08/26 01:42:09;;;;;;;41.72;22.38;;;21.10;99.90;;;;;;5116161;28;20043;-71
2022/08/26 01:44:44;;;;;;;42.55;21.42;;;20.80;99.90;;;;;;5098051;28;20146;-77
2022/08/26 01:47:12;;;;;;;38.20;21.90;;;20.60;99.90;;;;;;5116157;28;20051;-76
2022/08/26 01:49:39;;;;;;;46.70;22.25;;;21.20;99.90;;;;;;5098011;28;20054;-79
2022/08/26 01:52:07;;;;;;;40.63;23.55;;;21.10;99.90;;;;;;5115701;28;20044;-80
2022/08/26 01:54:33;;;;;;;41.33;21.75;;;20.90;99.90;;;;;;5115971;28;20391;-74
2022/08/26 01:56:59;;;;;;;41.65;20.25;;;20.70;99.90;;;;;;5097866;28;20064;-77
2022/08/26 01:59:25;;;;;;;55.45;19.40;;;20.90;99.90;;;;;;5115894;28;20043;-78
2022/08/26 02:01:52;;;;;;;43.38;19.98;;;20.80;99.90;;;;;;5097750;28;20048;-76
2022/08/26 02:04:27;;;;;;;39.22;19.35;;;20.60;99.90;;;;;;5115688;28;20047;-74
2022/08/26 02:06:55;;;;;;;49.87;23.33;;;21.10;99.90;;;;;;5115533;28;20059;-79
2022/08/26 02:09:22;;;;;;;33.80;19.42;;;20.80;99.90;;;;;;5115586;28;20047;-75
2022/08/26 02:11:48;;;;;;;35.47;20.77;;;20.90;99.90;;;;;;5115506;28;20135;-76
2022/08/26 02:14:20;;;;;;;42.13;20.45;;;20.80;99.90;;;;;;5115554;28;20043;-75
2022/08/26 02:16:49;;;;;;;37.72;19.45;;;20.70;99.90;;;;;;5115559;28;20104;-75
2022/08/26 02:19:19;;;;;;;30.48;17.30;;;21.20;99.90;;;;;;5097281;28;20067;-78
2022/08/26 02:21:47;;;;;;;31.80;17.88;;;21.20;99.90;;;;;;5096968;28;20131;-78
2022/08/26 02:24:17;;;;;;;35.15;16.70;;;20.90;99.90;;;;;;5115379;28;20116;-77
2022/08/26 02:26:45;;;;;;;34.08;16.67;;;20.90;99.90;;;;;;5097441;28;20395;-79
2022/08/26 02:29:24;;;;;;;29.80;17.55;;;20.90;99.90;;;;;;5096729;28;20058;-76
2022/08/26 02:31:50;;;;;;;27.75;14.73;;;20.70;99.90;;;;;;5114824;28;20488;-76
2022/08/26 02:34:28;;;;;;;29.17;16.38;;;21.00;99.90;;;;;;5114858;28;20479;-75
2022/08/26 02:36:55;;;;;;;34.90;15.65;;;20.70;99.90;;;;;;5096864;28;20092;-73
2022/08/26 02:39:21;;;;;;;26.90;15.05;;;21.00;99.90;;;;;;5115064;28;20087;-76
2022/08/26 02:41:47;;;;;;;47.92;17.50;;;20.70;99.90;;;;;;5115042;28;20069;-78
2022/08/26 02:44:13;;;;;;;31.42;15.98;;;20.70;99.90;;;;;;5115021;28;20075;-75
2022/08/26 02:46:39;;;;;;;30.80;15.48;;;20.70;99.90;;;;;;5114900;28;20053;-74
2022/08/26 02:49:05;;;;;;;32.25;16.70;;;20.70;99.90;;;;;;5113498;28;20043;-71
2022/08/26 02:51:30;;;;;;;33.67;17.42;;;20.70;99.90;;;;;;5114735;28;20467;-73
2022/08/26 02:53:56;;;;;;;38.35;18.35;;;20.60;99.90;;;;;;5096518;28;20044;-78
2022/08/26 02:56:22;;;;;;;34.70;16.77;;;20.50;99.90;;;;;;5096623;28;20165;-73
2022/08/26 02:58:48;;;;;;;35.95;15.88;;;20.50;99.90;;;;;;5114661;28;20067;-75
2022/08/26 03:01:23;;;;;;;28.55;14.68;;;20.30;99.90;;;;;;5114676;28;20376;-73
2022/08/26 03:03:48;;;;;;;30.42;15.05;;;20.60;99.90;;;;;;5114289;28;20507;-75
2022/08/26 03:06:15;;;;;;;30.27;14.55;;;20.70;99.90;;;;;;5114210;28;20036;-74
2022/08/26 03:08:40;;;;;;;29.98;14.82;;;20.40;99.90;;;;;;5114486;28;20039;-76
2022/08/26 03:11:06;;;;;;;26.70;14.05;;;20.60;99.90;;;;;;5079619;28;20036;-78
2022/08/26 03:13:31;;;;;;;24.02;12.40;;;20.50;99.90;;;;;;5114442;28;20040;-75
2022/08/26 03:15:59;;;;;;;31.67;13.23;;;20.50;99.90;;;;;;5114429;28;20054;-79
2022/08/26 03:18:25;;;;;;;26.58;13.30;;;20.40;99.90;;;;;;5114220;28;20044;-75
2022/08/26 03:20:51;;;;;;;28.77;12.70;;;20.40;99.90;;;;;;5114487;28;20051;-73
2022/08/26 03:23:16;;;;;;;26.20;12.88;;;20.50;99.90;;;;;;5096473;28;20055;-75
2022/08/26 03:25:42;;;;;;;34.55;13.13;;;20.50;99.90;;;;;;5114200;28;20036;-79
2022/08/26 03:28:08;;;;;;;19.02;11.35;;;20.40;99.90;;;;;;5113896;28;20128;-77
2022/08/26 03:30:39;;;;;;;24.83;13.55;;;20.60;99.90;;;;;;5114126;28;20059;-75
2022/08/26 03:33:07;;;;;;;27.25;13.10;;;20.30;99.90;;;;;;5113789;28;20059;-73
2022/08/26 03:35:33;;;;;;;21.13;12.00;;;20.30;99.90;;;;;;5113998;28;20044;-80
2022/08/26 03:38:01;;;;;;;23.25;12.50;;;20.60;99.90;;;;;;5113996;28;20051;-75
2022/08/26 03:40:27;;;;;;;25.67;12.23;;;20.20;99.90;;;;;;5113885;28;20051;-74
2022/08/26 03:42:53;;;;;;;26.88;11.80;;;20.50;99.90;;;;;;5113845;28;20088;-79
2022/08/26 03:45:20;;;;;;;24.77;11.18;;;20.40;99.90;;;;;;5113790;28;20479;-78
2022/08/26 03:47:46;;;;;;;26.83;12.48;;;20.50;99.90;;;;;;5095330;28;20062;-77
2022/08/26 03:50:17;;;;;;;23.77;10.75;;;20.10;99.90;;;;;;5113667;28;20047;-69
2022/08/26 03:52:42;;;;;;;24.65;10.75;;;20.40;99.90;;;;;;5095356;28;20126;-70
2022/08/26 03:55:09;;;;;;;27.40;12.13;;;20.20;99.90;;;;;;5095035;28;20150;-73
2022/08/26 03:57:35;;;;;;;22.55;9.93;;;20.30;99.90;;;;;;5078560;28;20448;-72
2022/08/26 04:00:02;;;;;;;26.02;10.18;;;20.20;99.90;;;;;;5113213;28;20057;-74
2022/08/26 04:02:28;;;;;;;24.02;9.75;;;19.90;99.90;;;;;;5113141;28;20051;-76
2022/08/26 04:04:54;;;;;;;26.02;10.43;;;20.40;99.90;;;;;;5113429;28;20373;-76
2022/08/26 04:07:19;;;;;;;28.90;9.38;;;20.00;99.90;;;;;;5095106;28;20085;-75
2022/08/26 04:09:45;;;;;;;23.20;9.25;;;20.00;99.90;;;;;;5113231;28;20438;-70
2022/08/26 04:12:11;;;;;;;25.35;9.73;;;20.20;99.90;;;;;;5113146;28;20046;-78
2022/08/26 04:14:37;;;;;;;26.08;9.63;;;20.10;99.90;;;;;;5113312;28;20535;-74
2022/08/26 04:17:04;;;;;;;20.23;10.13;;;20.40;99.90;;;;;;5112901;28;20051;-72
2022/08/26 04:19:31;;;;;;;22.20;9.73;;;20.30;99.90;;;;;;5113112;28;20047;-78
2022/08/26 04:21:57;;;;;;;30.08;9.20;;;20.20;99.90;;;;;;5095071;28;20074;-74
2022/08/26 04:24:24;;;;;;;27.80;10.55;;;20.10;99.90;;;;;;5113006;28;20039;-74
2022/08/26 04:26:50;;;;;;;23.70;9.73;;;20.30;99.90;;;;;;5113021;28;20116;-73
2022/08/26 04:29:25;;;;;;;28.98;9.93;;;19.90;99.90;;;;;;5112498;28;20051;-74
2022/08/26 04:31:53;;;;;;;24.75;10.27;;;20.10;99.90;;;;;;5112516;28;20134;-70
2022/08/26 04:34:19;;;;;;;28.60;9.85;;;20.00;99.90;;;;;;5112890;28;20091;-78
2022/08/26 04:36:45;;;;;;;23.23;9.90;;;19.90;99.90;;;;;;5094755;28;20051;-76
2022/08/26 04:39:15;;;;;;;25.45;9.10;;;20.10;99.90;;;;;;5094597;28;20043;-70
2022/08/26 04:41:41;;;;;;;25.85;8.45;;;19.90;99.90;;;;;;5112830;28;20059;-74
2022/08/26 04:44:07;;;;;;;22.95;8.27;;;20.10;99.90;;;;;;5112730;28;20039;-76
2022/08/26 04:46:33;;;;;;;19.58;8.55;;;20.10;99.90;;;;;;5112403;28;20505;-71
2022/08/26 04:48:59;;;;;;;19.52;7.90;;;19.90;99.90;;;;;;5112682;28;20048;-71
2022/08/26 04:51:27;;;;;;;25.90;8.10;;;20.00;99.90;;;;;;5112502;28;20122;-73
2022/08/26 04:53:57;;;;;;;23.38;8.32;;;19.70;99.90;;;;;;5112289;28;20615;-76
2022/08/26 04:56:30;;;;;;;26.60;7.85;;;20.20;99.90;;;;;;5112240;28;20457;-78
2022/08/26 04:58:56;;;;;;;22.48;7.90;;;19.80;99.90;;;;;;5112590;28;20043;-73
2022/08/26 05:01:22;;;;;;;20.38;8.35;;;19.80;99.90;;;;;;5112169;28;20040;-72
2022/08/26 05:03:48;;;;;;;24.95;8.20;;;20.10;99.90;;;;;;5112490;28;20092;-74
2022/08/26 05:06:15;;;;;;;25.70;8.40;;;20.00;99.90;;;;;;5112474;28;20142;-72
2022/08/26 05:08:41;;;;;;;17.83;6.85;;;20.00;99.90;;;;;;5112456;28;20063;-74
2022/08/26 05:11:07;;;;;;;22.33;7.30;;;19.80;99.90;;;;;;5095258;28;20044;-75
2022/08/26 05:13:34;;;;;;;21.85;6.43;;;19.80;99.90;;;;;;5116520;28;20502;-72
2022/08/26 05:16:06;;;;;;;20.40;6.50;;;19.80;99.90;;;;;;5116675;28;20071;-76
2022/08/26 05:18:32;;;;;;;19.55;5.82;;;20.30;99.90;;;;;;5116624;28;20132;-74
2022/08/26 05:21:00;;;;;;;19.67;6.18;;;19.90;99.90;;;;;;5116529;28;20513;-77
2022/08/26 05:23:27;;;;;;;22.05;6.53;;;20.20;99.90;;;;;;5116486;28;20040;-77
2022/08/26 05:25:54;;;;;;;18.45;5.25;;;20.00;99.90;;;;;;5116461;28;20051;-75
2022/08/26 05:28:20;;;;;;;21.90;5.68;;;20.00;99.90;;;;;;5116132;28;20046;-77
2022/08/26 05:30:48;;;;;;;19.58;5.05;;;20.10;99.90;;;;;;5097943;28;20204;-79
2022/08/26 05:33:14;;;;;;;21.48;4.95;;;20.00;99.90;;;;;;5116306;28;20403;-70
2022/08/26 05:35:41;;;;;;;16.88;4.97;;;20.20;99.90;;;;;;5098121;28;20050;-78
2022/08/26 05:38:09;;;;;;;16.15;5.05;;;19.80;99.90;;;;;;5116171;28;20376;-75
2022/08/26 05:40:39;;;;;;;18.63;4.47;;;19.80;99.90;;;;;;5115870;28;20580;-76
2022/08/26 05:43:09;;;;;;;20.38;4.53;;;20.30;99.90;;;;;;5115835;28;20044;-75
2022/08/26 05:45:40;;;;;;;10.90;3.97;;;20.00;99.90;;;;;;5116118;28;20134;-74
2022/08/26 05:48:09;;;;;;;18.48;3.90;;;20.30;99.90;;;;;;5116151;28;20471;-76
2022/08/26 05:50:41;;;;;;;17.45;5.18;;;20.00;99.90;;;;;;5116039;28;20062;-73
2022/08/26 05:53:08;;;;;;;15.00;4.72;;;20.30;99.90;;;;;;5115966;28;20090;-73
2022/08/26 05:55:34;;;;;;;16.80;5.00;;;20.10;99.90;;;;;;5115642;28;20554;-74
2022/08/26 05:58:00;;;;;;;15.07;4.40;;;20.40;99.90;;;;;;5115602;28;20130;-74
2022/08/26 06:00:26;;;;;;;25.23;5.38;;;20.10;99.90;;;;;;5097831;28;20047;-75
2022/08/26 06:02:52;;;;;;;11.48;3.92;;;20.10;99.90;;;;;;5115832;28;20087;-75
2022/08/26 06:05:18;;;;;;;19.67;4.68;;;20.00;99.90;;;;;;5115741;28;20105;-76
2022/08/26 06:10:28;;;;;;;16.50;4.03;;;20.40;99.90;;;;;;5115647;28;20139;-75
2022/08/26 06:12:54;;;;;;;18.50;4.30;;;20.30;99.90;;;;;;5115186;28;20096;-72
2022/08/26 06:15:19;;;;;;;16.55;4.53;;;20.20;99.90;;;;;;5097272;28;20215;-73
2022/08/26 06:17:45;;;;;;;13.15;4.07;;;20.30;99.90;;;;;;5115507;28;20046;-73
2022/08/26 06:20:10;;;;;;;13.60;3.45;;;20.30;99.90;;;;;;5115437;28;20475;-75
2022/08/26 06:25:39;;;;;;;18.83;3.70;;;20.30;99.90;;;;;;5115391;28;20109;-73
2022/08/26 06:28:05;;;;;;;13.93;3.42;;;20.20;99.90;;;;;;5115076;28;20054;-75
2022/08/26 06:30:39;;;;;;;7.72;2.90;;;19.90;99.90;;;;;;5096785;28;20380;-70
2022/08/26 06:33:05;;;;;;;13.02;3.40;;;20.10;99.90;;;;;;5115181;28;20044;-77
2022/08/26 06:35:38;;;;;;;15.07;2.97;;;20.00;99.90;;;;;;5115130;28;20444;-73
2022/08/26 06:38:05;;;;;;;14.27;3.50;;;20.10;99.90;;;;;;5115112;28;20035;-72
2022/08/26 06:40:31;;;;;;;9.82;2.63;;;20.20;99.90;;;;;;5096951;28;20082;-73
2022/08/26 06:42:57;;;;;;;12.23;3.10;;;20.20;99.90;;;;;;5114757;28;20040;-79
2022/08/26 06:45:23;;;;;;;10.60;3.10;;;20.20;99.90;;;;;;5114911;28;20036;-77
2022/08/26 06:47:48;;;;;;;12.07;2.95;;;20.20;99.90;;;;;;5114939;28;20449;-77
2022/08/26 06:50:14;;;;;;;15.93;3.05;;;20.10;99.90;;;;;;5114879;28;20043;-77
2022/08/26 06:52:41;;;;;;;18.70;3.50;;;20.10;99.90;;;;;;5114847;28;20086;-79
2022/08/26 06:55:07;;;;;;;18.52;4.47;;;20.20;99.90;;;;;;5114833;28;20093;-79
2022/08/26 06:57:35;;;;;;;37.78;5.05;;;20.00;99.90;;;;;;5096325;28;20051;-78
2022/08/26 07:00:07;;;;;;;23.15;3.65;;;20.00;99.90;;;;;;5114827;28;20077;-77
2022/08/26 07:02:34;;;;;;;17.85;3.47;;;20.00;99.90;;;;;;5114789;28;20047;-74
2022/08/26 07:04:59;;;;;;;14.30;3.50;;;20.00;99.90;;;;;;5114743;28;20047;-76
2022/08/26 07:07:25;;;;;;;20.95;3.40;;;20.00;99.90;;;;;;5114838;28;20044;-75
2022/08/26 07:09:51;;;;;;;16.27;3.17;;;20.20;99.90;;;;;;5114118;28;20052;-81
2022/08/26 07:12:16;;;;;;;21.10;4.35;;;19.90;99.90;;;;;;5114488;28;20039;-76
2022/08/26 07:14:42;;;;;;;16.05;3.03;;;19.60;99.90;;;;;;5114582;28;20070;-75
2022/08/26 07:17:07;;;;;;;17.95;3.33;;;19.90;99.90;;;;;;5096176;28;20530;-80
2022/08/26 07:19:33;;;;;;;13.93;3.20;;;20.00;99.90;;;;;;5096092;28;20361;-76
2022/08/26 07:22:00;;;;;;;17.27;3.42;;;19.80;99.90;;;;;;5114322;28;20039;-74
2022/08/26 07:24:27;;;;;;;12.63;2.78;;;19.90;99.90;;;;;;5113960;28;20051;-76
2022/08/26 07:26:52;;;;;;;15.35;2.85;;;19.80;99.90;;;;;;5114226;28;20083;-77
2022/08/26 07:29:18;;;;;;;12.23;2.85;;;19.80;99.90;;;;;;5095542;28;20160;-77
2022/08/26 07:31:44;;;;;;;12.52;2.67;;;19.60;99.90;;;;;;5114063;28;20043;-77
2022/08/26 07:34:12;;;;;;;17.85;2.78;;;19.60;99.90;;;;;;5113508;28;20054;-78
2022/08/26 07:36:38;;;;;;;15.35;3.25;;;19.80;99.90;;;;;;5114021;28;20063;-77
2022/08/26 07:39:05;;;;;;;17.10;2.65;;;19.50;99.90;;;;;;5113452;28;20047;-77
2022/08/26 07:41:31;;;;;;;12.23;2.38;;;19.80;99.90;;;;;;5113949;28;20040;-80
2022/08/26 07:43:56;;;;;;;15.10;3.78;;;19.60;99.90;;;;;;5095955;28;20104;-78
2022/08/26 07:46:22;;;;;;;14.52;2.45;;;19.80;99.90;;;;;;5095561;28;20134;-78
2022/08/26 07:48:49;;;;;;;9.02;2.40;;;19.50;99.90;;;;;;5113423;28;20047;-76
2022/08/26 07:51:17;;;;;;;14.98;3.30;;;19.70;99.90;;;;;;5113714;28;20046;-77
2022/08/26 07:53:44;;;;;;;13.48;2.72;;;20.00;99.90;;;;;;5113402;28;20079;-78
2022/08/26 07:56:10;;;;;;;19.27;2.88;;;19.80;99.90;;;;;;5113634;28;20096;-80
2022/08/26 07:58:36;;;;;;;9.20;2.08;;;19.70;99.90;;;;;;5113640;28;20076;-79
2022/08/26 08:01:02;;;;;;;10.57;2.70;;;19.80;99.90;;;;;;5113565;28;20498;-75
2022/08/26 08:03:28;;;;;;;11.98;3.20;;;19.80;99.90;;;;;;5113508;28;20094;-81
2022/08/26 08:05:53;;;;;;;9.95;2.75;;;20.10;99.90;;;;;;5113407;28;20050;-77
2022/08/26 08:08:20;;;;;;;10.98;2.28;;;19.60;99.90;;;;;;5095201;28;20372;-80
2022/08/26 08:10:46;;;;;;;10.98;2.58;;;19.70;99.90;;;;;;5095102;28;20054;-73
2022/08/26 08:13:12;;;;;;;9.13;2.35;;;20.20;99.90;;;;;;5113215;28;20054;-78
2022/08/26 08:15:39;;;;;;;12.05;2.55;;;19.90;99.90;;;;;;5113280;28;20051;-76
2022/08/26 08:18:05;;;;;;;10.15;2.50;;;19.70;99.90;;;;;;5095031;28;20043;-79
2022/08/26 08:20:32;;;;;;;17.60;2.83;;;19.90;99.90;;;;;;5113293;28;20048;-76
2022/08/26 08:22:59;;;;;;;13.98;2.65;;;20.00;99.90;;;;;;5112900;28;20039;-80
2022/08/26 08:25:25;;;;;;;9.68;3.15;;;20.10;99.90;;;;;;5113137;28;20044;-81
2022/08/26 08:27:50;;;;;;;12.43;2.38;;;19.80;99.90;;;;;;5113047;28;20112;-81
2022/08/26 08:30:18;;;;;;;19.85;2.65;;;19.80;99.90;;;;;;5112885;28;20101;-80
2022/08/26 08:32:44;;;;;;;14.38;2.92;;;19.90;99.90;;;;;;5094695;28;20100;-77
2022/08/26 08:35:14;;;;;;;13.52;2.58;;;20.00;99.90;;;;;;5095061;28;20043;-76
2022/08/26 08:37:40;;;;;;;12.80;2.72;;;19.90;99.90;;;;;;5112349;28;20582;-78
2022/08/26 08:40:08;;;;;;;11.52;2.30;;;19.90;99.90;;;;;;5112850;28;20036;-78
2022/08/26 08:42:56;;;;;;;10.48;2.30;;;20.00;99.90;;;;;;5112809;28;20035;-81
2022/08/26 08:45:30;;;;;;;14.38;2.40;;;20.00;99.90;;;;;;5111815;28;20821;-80
2022/08/26 08:48:00;;;;;;;10.38;2.35;;;20.20;99.90;;;;;;5112783;28;20089;-76
2022/08/26 08:50:28;;;;;;;11.57;2.10;;;20.10;99.90;;;;;;5112745;28;20051;-78
2022/08/26 08:53:00;;;;;;;11.63;2.40;;;20.20;99.90;;;;;;5112338;28;20172;-80
2022/08/26 08:55:38;;;;;;;10.35;2.10;;;20.10;99.90;;;;;;5112745;28;20040;-75
2022/08/26 08:58:14;;;;;;;14.35;2.85;;;19.80;99.90;;;;;;5112842;28;20076;-75
2022/08/26 09:01:04;;;;;;;8.90;2.17;;;19.90;99.90;;;;;;5112914;28;20051;-78
2022/08/26 09:03:56;;;;;;;15.05;2.38;;;19.30;99.90;;;;;;5112726;28;20087;-77
2022/08/26 09:06:21;;;;;;;15.48;2.45;;;20.00;99.90;;;;;;5112312;28;20050;-77
2022/08/26 09:08:49;;;;;;;11.30;2.72;;;20.00;99.90;;;;;;5094349;28;20134;-75
2022/08/26 09:11:15;;;;;;;19.23;2.35;;;20.00;99.90;;;;;;5112387;28;20047;-80
2022/08/26 09:13:50;;;;;;;12.68;2.47;;;19.90;99.90;;;;;;5112528;28;20078;-81
2022/08/26 09:16:42;;;;;;;16.77;2.42;;;20.00;99.90;;;;;;5112538;28;20458;-77
2022/08/26 09:19:26;;;;;;;13.98;2.10;;;19.90;99.90;;;;;;5111651;28;20642;-74
2022/08/26 09:21:59;;;;;;;17.63;2.55;;;20.40;99.90;;;;;;5112203;28;20040;-80
2022/08/26 09:24:28;;;;;;;15.30;2.50;;;20.20;99.90;;;;;;5112417;28;20050;-80
2022/08/26 09:26:56;;;;;;;14.48;2.30;;;20.30;99.90;;;;;;5112470;28;20089;-79
2022/08/26 09:29:32;;;;;;;16.05;2.42;;;20.10;99.90;;;;;;5094150;28;20048;-77
2022/08/26 09:32:20;;;;;;;;;;;20.40;99.90;;;;;;5112783;28;20434;-78
2022/08/26 09:34:58;;;;;;;14.00;2.00;;;20.30;99.90;;;;;;5112127;28;20501;-79
2022/08/26 09:37:38;;;;;;;11.88;2.03;;;20.20;99.90;;;;;;5112376;28;20047;-78
2022/08/26 09:40:34;;;;;;;12.88;2.50;;;20.30;99.90;;;;;;5112005;28;20498;-78
2022/08/26 09:43:20;;;;;;;12.38;2.15;;;20.00;99.90;;;;;;5109933;28;20400;-78
2022/08/26 09:45:53;;;;;;;12.75;1.83;;;20.00;99.90;;;;;;5111917;28;20500;-78
2022/08/26 09:48:31;;;;;;;15.20;2.72;;;20.00;99.90;;;;;;5112244;28;20058;-79
2022/08/26 09:51:00;;;;;;;15.18;3.60;;;20.00;99.90;;;;;;5111988;28;20399;-78
2022/08/26 09:53:29;;;;;;;15.32;2.17;;;19.90;99.90;;;;;;5112017;28;20043;-80
2022/08/26 09:56:22;;;;;;;15.10;2.58;;;19.80;99.90;;;;;;5112087;28;20036;-80
2022/08/26 09:58:49;;;;;;;9.43;2.00;;;19.90;99.90;;;;;;5115812;28;20047;-80
2022/08/26 10:01:26;;;;;;;12.13;2.45;;;19.60;99.90;;;;;;5115903;28;20429;-79
2022/08/26 10:04:03;;;;;;;13.18;1.70;;;19.70;99.90;;;;;;5097309;28;20048;-79
2022/08/26 10:06:28;;;;;;;;;;;20.00;99.90;;;;;;5116368;28;20113;-77
2022/08/26 10:08:57;;;;;;;11.50;2.53;;;19.70;99.90;;;;;;5115859;28;20379;-79
2022/08/26 10:11:41;;;;;;;12.43;3.13;;;19.50;99.90;;;;;;5097584;28;20097;-78
2022/08/26 10:14:38;;;;;;;6.88;1.70;;;19.80;99.90;;;;;;5097722;28;20126;-76
2022/08/26 10:17:28;;;;;;;12.23;2.08;;;19.60;99.90;;;;;;5114363;28;20051;-80
2022/08/26 10:20:17;;;;;;;6.95;1.70;;;19.60;99.90;;;;;;5114466;28;20060;-75
2022/08/26 10:22:56;;;;;;;9.18;2.47;;;19.50;99.90;;;;;;5097605;28;20052;-78
2022/08/26 10:25:43;;;;;;;10.65;2.05;;;19.70;99.90;;;;;;5115518;28;20047;-77
2022/08/26 10:28:20;;;;;;;17.42;2.58;;;19.80;99.90;;;;;;5115507;28;20499;-79
2022/08/26 10:30:54;;;;;;;13.00;2.58;;;19.20;99.90;;;;;;5114999;28;20430;-77
2022/08/26 10:33:22;;;;;;;9.70;2.70;;;19.70;99.90;;;;;;5115194;28;20126;-78
2022/08/26 10:35:55;;;;;;;11.38;2.65;;;19.80;99.90;;;;;;5115009;28;20412;-79
2022/08/26 10:38:38;;;;;;;12.90;2.72;;;19.50;99.90;;;;;;5115262;28;20097;-77
2022/08/26 10:41:14;;;;;;;13.90;3.28;;;19.30;99.90;;;;;;5114921;28;20567;-77
2022/08/26 10:43:50;;;;;;;11.10;2.70;;;19.80;99.90;;;;;;5115460;28;20097;-77
2022/08/26 10:46:21;;;;;;;16.10;3.03;;;19.70;99.90;;;;;;5115171;28;20048;-78
2022/08/26 10:48:57;;;;;;;17.02;3.50;;;19.60;99.90;;;;;;5096698;28;20451;-82
2022/08/26 10:51:34;;;;;;;12.07;2.85;;;19.60;99.90;;;;;;5115240;28;20048;-78
2022/08/26 10:54:02;;;;;;;12.68;3.50;;;19.70;99.90;;;;;;5115357;28;20408;-77
2022/08/26 10:56:47;;;;;;;13.57;3.35;;;19.20;99.90;;;;;;5096649;28;20052;-78
2022/08/26 10:59:58;;;;;;;15.70;3.47;;;19.20;99.90;;;;;;5096805;28;20047;-70
2022/08/26 11:02:39;;;;;;;28.60;4.18;;;19.00;99.90;;;;;;5096335;28;20048;-67
2022/08/26 11:05:18;;;;;;;19.13;3.20;;;19.20;99.90;;;;;;5115000;28;20115;-71
2022/08/26 11:07:47;;;;;;;19.02;3.78;;;19.20;99.90;;;;;;5096492;28;20123;-75
2022/08/26 11:10:16;;;;;;;17.58;3.95;;;19.10;99.90;;;;;;5095517;28;20051;-74
2022/08/26 11:12:41;;;;;;;20.30;4.25;;;19.10;99.90;;;;;;5114430;28;20036;-74
2022/08/26 11:15:10;;;;;;;15.40;3.33;;;19.00;99.90;;;;;;5114500;28;20047;-77
2022/08/26 11:17:45;;;;;;;20.77;3.83;;;19.30;99.90;;;;;;5114311;28;20047;-75
2022/08/26 11:20:30;;;;;;;15.50;3.45;;;19.10;99.90;;;;;;5114451;28;20051;-82
2022/08/26 11:23:22;;;;;;;22.25;3.65;;;19.10;99.90;;;;;;5114430;28;20399;-75
2022/08/26 11:26:06;;;;;;;13.98;3.28;;;19.30;99.90;;;;;;5114250;28;20048;-76
2022/08/26 11:28:46;;;;;;;15.25;3.85;;;19.30;99.90;;;;;;5096209;28;20047;-78
2022/08/26 11:31:24;;;;;;;17.70;3.70;;;19.10;99.90;;;;;;5114096;28;20063;-73
2022/08/26 11:33:58;;;;;;;14.02;3.55;;;18.80;99.90;;;;;;5114118;28;20059;-76
2022/08/26 11:36:33;;;;;;;16.83;4.50;;;19.20;99.90;;;;;;5096088;28;20054;-76
2022/08/26 11:39:00;;;;;;;16.80;4.00;;;18.90;99.90;;;;;;5113729;28;20774;-77
2022/08/26 11:41:28;;;;;;;15.35;4.50;;;19.00;99.90;;;;;;5113919;28;20278;-72
2022/08/26 11:43:56;;;;;;;12.82;3.50;;;19.30;99.90;;;;;;5113890;28;20039;-70
2022/08/26 11:46:36;;;;;;;17.40;3.58;;;19.00;99.90;;;;;;5113528;28;20059;-74
2022/08/26 11:49:05;;;;;;;17.42;4.47;;;18.80;99.90;;;;;;5113544;28;20510;-77
2022/08/26 11:51:31;;;;;;;14.80;3.47;;;18.90;99.90;;;;;;5113687;28;20119;-73
2022/08/26 11:54:16;;;;;;;15.15;2.85;;;19.30;99.90;;;;;;5113744;28;20346;-75
2022/08/26 11:56:44;;;;;;;14.43;3.90;;;19.00;99.90;;;;;;5113283;28;20560;-74
2022/08/26 11:59:16;;;;;;;10.65;3.13;;;19.20;99.90;;;;;;5113297;28;20527;-75
2022/08/26 12:01:44;;;;;;;11.43;2.75;;;18.70;99.90;;;;;;5113400;28;20044;-81
2022/08/26 12:04:23;;;;;;;15.00;3.10;;;18.90;99.90;;;;;;5113568;28;20046;-69
2022/08/26 12:06:50;;;;;;;15.98;3.58;;;18.60;99.90;;;;;;5095887;28;20149;-74
2022/08/26 12:09:25;;;;;;;10.75;3.00;;;19.00;99.90;;;;;;5095291;28;20130;-73
2022/08/26 12:11:52;;;;;;;8.07;3.38;;;18.60;99.90;;;;;;5113315;28;20103;-77
2022/08/26 12:14:25;;;;;;;12.75;3.05;;;18.70;99.90;;;;;;5095129;28;20056;-86
2022/08/26 12:16:52;;;;;;;13.65;3.47;;;18.80;99.90;;;;;;5095282;28;20052;-79
2022/08/26 12:19:27;;;;;;;13.20;3.35;;;19.00;99.90;;;;;;5095078;28;20095;-76
2022/08/26 12:22:26;;;;;;;12.55;3.50;;;18.90;99.90;;;;;;5095348;28;20498;-83
2022/08/26 12:24:57;;;;;;;9.75;2.67;;;18.90;99.90;;;;;;5107211;28;20056;-85
2022/08/26 12:27:35;;;;;;;9.20;2.50;;;18.80;99.90;;;;;;5095234;28;20397;-82
2022/08/26 12:30:06;;;;;;;17.00;2.90;;;19.00;99.90;;;;;;5094753;28;20067;-79
2022/08/26 12:32:32;;;;;;;10.80;2.80;;;19.30;99.90;;;;;;5113008;28;20047;-80
2022/08/26 12:35:01;;;;;;;9.45;3.10;;;19.10;99.90;;;;;;5113239;28;20169;-73
2022/08/26 12:37:28;;;;;;;9.48;3.05;;;19.10;99.90;;;;;;5113594;28;20107;-84
2022/08/26 12:39:54;;;;;;;8.35;3.67;;;19.10;99.90;;;;;;5112856;28;20047;-83
2022/08/26 12:42:38;;;;;;;17.10;3.50;;;19.50;99.90;;;;;;5113170;28;20092;-75
2022/08/26 12:45:05;;;;;;;10.48;3.25;;;19.20;99.90;;;;;;5113002;28;20036;-81
2022/08/26 12:47:41;;;;;;;8.50;3.20;;;19.40;99.90;;;;;;5094924;28;20047;-77
2022/08/26 12:50:09;;;;;;;10.43;3.35;;;19.30;99.90;;;;;;5113085;28;20048;-80
2022/08/26 12:52:50;;;;;;;10.75;2.67;;;19.60;99.90;;;;;;5112995;28;20383;-85
2022/08/26 12:55:21;;;;;;;16.08;2.92;;;19.60;99.90;;;;;;5113216;28;20070;-81